Hillegom, Netherlands
Current Conditions -  °F | °C
As of 1:55 PM on Friday 19 Dec 2014 (Local Time) from EHAM Reporting Station
Few Clouds Few Clouds  
Wind Chill: 39°   Ceiling: Unl
Heat Index: 46°   Visibility: 6mi
Dew Point: 39°   Wind: 20mph
Humidity: 76%   Direction: 280°W
Pressure: 29.85"   Gusts: NA
Location:  52.29°N, 4.58°E
Report Text: EHAM 191255Z 28017KT 250V310 9999 FEW025 08/04 Q1011 NOSIG
Loading
Personal Weather Stations






























Interactive Weather Map New forecast layout! Learn more

10-Day Weather Forecast

Advertisements
Track Severe Weather on mobile